createdAt,value
2018-09-24T00:00:03.079Z,0.00
2018-09-24T00:01:03.144Z,0.00
2018-09-24T00:02:03.293Z,0.00
2018-09-24T00:03:03.441Z,0.00
2018-09-24T00:04:03.590Z,0.00
2018-09-24T00:05:03.738Z,0.00
2018-09-24T00:06:03.884Z,0.00
2018-09-24T00:07:04.036Z,0.00
2018-09-24T00:08:04.185Z,0.00
2018-09-24T00:09:04.333Z,0.00
2018-09-24T00:10:04.481Z,0.00
2018-09-24T00:11:04.662Z,0.00
2018-09-24T00:12:04.777Z,0.00
2018-09-24T00:13:04.925Z,0.00
2018-09-24T00:14:05.075Z,0.00
2018-09-24T00:15:05.221Z,0.00
2018-09-24T00:16:05.368Z,0.00
2018-09-24T00:17:05.517Z,0.00
2018-09-24T00:18:05.664Z,0.00
2018-09-24T00:19:05.812Z,0.00
2018-09-24T00:20:05.959Z,0.00
2018-09-24T00:21:06.106Z,0.00
2018-09-24T00:22:06.257Z,0.00
2018-09-24T00:23:06.402Z,0.00
2018-09-24T00:24:06.549Z,0.00
2018-09-24T00:25:06.698Z,0.00
2018-09-24T00:26:06.847Z,0.00
2018-09-24T00:27:06.994Z,0.00
2018-09-24T00:28:07.142Z,0.00
2018-09-24T00:29:07.289Z,0.00
2018-09-24T00:30:07.436Z,0.00
2018-09-24T00:31:07.587Z,0.00
2018-09-24T00:32:07.735Z,0.00
2018-09-24T00:33:07.882Z,0.00
2018-09-24T00:34:08.031Z,0.00
2018-09-24T00:35:08.177Z,0.00
2018-09-24T00:36:08.326Z,0.00
2018-09-24T00:37:08.480Z,0.00
2018-09-24T00:38:08.621Z,0.00
2018-09-24T00:39:08.768Z,0.00
2018-09-24T00:40:08.916Z,0.00
2018-09-24T00:41:09.062Z,0.00
2018-09-24T00:42:09.210Z,0.00
2018-09-24T00:43:09.360Z,0.00
2018-09-24T00:44:09.507Z,0.00
2018-09-24T00:45:09.655Z,0.00
2018-09-24T00:46:09.801Z,0.00
2018-09-24T00:47:09.948Z,0.00
2018-09-24T00:48:10.097Z,0.00
2018-09-24T00:49:10.245Z,0.00
2018-09-24T00:50:10.390Z,0.00
2018-09-24T00:51:10.537Z,0.00
2018-09-24T00:52:10.681Z,0.00
2018-09-24T00:53:10.826Z,0.00
2018-09-24T00:54:10.974Z,0.00
2018-09-24T00:55:11.121Z,0.00
2018-09-24T00:56:11.270Z,0.00
2018-09-24T00:57:11.419Z,0.00
2018-09-24T00:58:11.569Z,0.00
2018-09-24T00:59:11.716Z,0.00
2018-09-24T01:00:11.868Z,0.00
2018-09-24T01:01:12.013Z,0.00
2018-09-24T01:02:12.203Z,0.00
2018-09-24T01:03:12.313Z,0.00
2018-09-24T01:04:12.452Z,0.00
2018-09-24T01:05:12.601Z,0.00
2018-09-24T01:06:12.749Z,0.00
2018-09-24T01:07:12.896Z,0.00
2018-09-24T01:08:13.043Z,0.00
2018-09-24T01:09:13.192Z,0.00
2018-09-24T01:10:13.341Z,0.00
2018-09-24T01:11:13.497Z,0.00
2018-09-24T01:12:13.637Z,0.00
2018-09-24T01:13:13.782Z,0.00
2018-09-24T01:14:13.929Z,0.00
2018-09-24T01:15:14.077Z,0.00
2018-09-24T01:16:14.227Z,0.00
2018-09-24T01:17:14.372Z,0.00
2018-09-24T01:18:14.519Z,0.00
2018-09-24T01:19:14.668Z,0.00
2018-09-24T01:20:14.811Z,0.00
2018-09-24T01:21:14.960Z,0.00
2018-09-24T01:22:15.107Z,0.00
2018-09-24T01:23:15.254Z,0.00
2018-09-24T01:24:15.401Z,0.00
2018-09-24T01:25:15.552Z,0.00
2018-09-24T01:26:15.703Z,0.00
2018-09-24T01:27:15.845Z,0.00
2018-09-24T01:28:15.992Z,0.00
2018-09-24T01:29:16.141Z,0.00
2018-09-24T01:30:16.294Z,0.00
2018-09-24T01:31:16.438Z,0.00
2018-09-24T01:32:16.585Z,0.00
2018-09-24T01:33:16.735Z,0.00
2018-09-24T01:34:16.884Z,0.00
2018-09-24T01:35:17.025Z,0.00
2018-09-24T01:36:17.174Z,0.00
2018-09-24T01:37:17.322Z,0.00
2018-09-24T01:38:17.469Z,0.00
2018-09-24T01:39:17.613Z,0.00
2018-09-24T01:40:17.758Z,0.00
2018-09-24T01:41:17.902Z,0.00
2018-09-24T01:42:18.059Z,0.00
2018-09-24T01:43:18.200Z,0.00
2018-09-24T01:44:18.348Z,0.00
2018-09-24T01:45:18.492Z,0.00
2018-09-24T01:46:18.642Z,0.00
2018-09-24T01:47:18.787Z,0.00
2018-09-24T01:48:18.934Z,0.00
2018-09-24T01:49:19.084Z,0.00
2018-09-24T01:50:19.229Z,0.00
2018-09-24T01:51:19.377Z,0.00
2018-09-24T01:52:19.526Z,0.00
2018-09-24T01:53:19.673Z,0.00
2018-09-24T01:54:19.822Z,0.00
2018-09-24T01:55:19.972Z,0.00
2018-09-24T01:56:20.118Z,0.00
2018-09-24T01:57:20.265Z,0.00
2018-09-24T01:58:20.411Z,0.00
2018-09-24T01:59:20.565Z,0.00
2018-09-24T02:00:20.712Z,0.00
2018-09-24T02:01:20.860Z,0.00
2018-09-24T02:02:21.010Z,0.00
2018-09-24T02:03:21.157Z,0.00
2018-09-24T02:04:21.303Z,0.00
2018-09-24T02:05:21.451Z,0.00
2018-09-24T02:06:21.610Z,0.00
2018-09-24T02:07:21.732Z,0.00
2018-09-24T02:08:21.878Z,0.00
2018-09-24T02:09:22.027Z,0.00
2018-09-24T02:10:22.174Z,0.00
2018-09-24T02:11:22.325Z,0.00
2018-09-24T02:12:22.466Z,0.00
2018-09-24T02:13:22.616Z,0.00
2018-09-24T02:14:22.762Z,0.00
2018-09-24T02:15:22.913Z,0.00
2018-09-24T02:16:23.060Z,0.00
2018-09-24T02:17:23.208Z,0.00
2018-09-24T02:18:23.357Z,0.00
2018-09-24T02:19:23.504Z,0.00
2018-09-24T02:20:23.650Z,0.00
2018-09-24T02:21:23.803Z,0.00
2018-09-24T02:22:23.947Z,0.00
2018-09-24T02:23:24.095Z,0.00
2018-09-24T02:24:24.243Z,0.00
2018-09-24T02:25:24.389Z,0.00
2018-09-24T02:26:24.537Z,0.00
2018-09-24T02:27:24.684Z,0.00
2018-09-24T02:28:24.831Z,0.00
2018-09-24T02:29:24.980Z,0.00
2018-09-24T02:30:25.127Z,0.00
2018-09-24T02:31:25.273Z,0.00
2018-09-24T02:32:25.428Z,0.00
2018-09-24T02:33:25.568Z,0.00
2018-09-24T02:34:25.716Z,0.00
2018-09-24T02:35:25.866Z,0.00
2018-09-24T02:36:26.013Z,0.00
2018-09-24T02:37:26.162Z,0.00
2018-09-24T02:38:26.309Z,0.00
2018-09-24T02:39:26.455Z,0.00
2018-09-24T02:40:26.603Z,0.00
2018-09-24T02:41:26.750Z,0.00
2018-09-24T02:42:26.903Z,0.00
2018-09-24T02:43:27.050Z,0.00
2018-09-24T02:44:27.193Z,0.00
2018-09-24T02:45:27.337Z,0.00
2018-09-24T02:46:27.492Z,0.00
2018-09-24T02:47:27.631Z,0.00
2018-09-24T02:48:27.779Z,0.00
2018-09-24T02:49:27.927Z,0.00
2018-09-24T02:50:28.072Z,0.00
2018-09-24T02:51:28.218Z,0.00
2018-09-24T02:52:28.366Z,0.00
2018-09-24T02:53:28.517Z,0.00
2018-09-24T02:54:28.661Z,0.00
2018-09-24T02:55:28.809Z,0.00
2018-09-24T02:56:28.959Z,0.00
2018-09-24T02:57:29.107Z,0.00
2018-09-24T02:58:29.253Z,0.00
2018-09-24T02:59:29.399Z,0.00
2018-09-24T03:00:29.549Z,0.00
2018-09-24T03:01:29.753Z,0.00
2018-09-24T03:02:29.842Z,0.00
2018-09-24T03:03:29.992Z,0.00
2018-09-24T03:04:30.138Z,0.00
2018-09-24T03:05:30.283Z,0.00
2018-09-24T03:06:30.433Z,0.00
2018-09-24T03:07:30.579Z,0.00
2018-09-24T03:08:30.728Z,0.00
2018-09-24T03:09:30.876Z,0.00
2018-09-24T03:10:31.021Z,0.00
2018-09-24T03:11:31.167Z,0.00
2018-09-24T03:12:31.315Z,0.00
2018-09-24T03:13:31.465Z,0.00
2018-09-24T03:14:31.607Z,0.00
2018-09-24T03:15:31.756Z,0.00
2018-09-24T03:16:31.905Z,0.00
2018-09-24T03:17:32.054Z,0.00
2018-09-24T03:18:32.200Z,0.00
2018-09-24T03:19:32.349Z,0.00
2018-09-24T03:20:32.496Z,0.00
2018-09-24T03:21:32.642Z,0.00
2018-09-24T03:22:32.792Z,0.00
2018-09-24T03:23:32.941Z,0.00
2018-09-24T03:24:33.085Z,0.00
2018-09-24T03:25:33.233Z,0.00
2018-09-24T03:26:33.380Z,0.00
2018-09-24T03:27:33.531Z,0.00
2018-09-24T03:28:33.680Z,0.00
2018-09-24T03:29:33.823Z,0.00
2018-09-24T03:30:33.980Z,0.00
2018-09-24T03:31:34.117Z,0.00
2018-09-24T03:32:34.264Z,0.00
2018-09-24T03:33:34.410Z,0.00
2018-09-24T03:34:34.560Z,0.00
2018-09-24T03:35:34.707Z,0.00
2018-09-24T03:36:34.851Z,0.00
2018-09-24T03:37:34.999Z,0.00
2018-09-24T03:38:35.144Z,0.00
2018-09-24T03:39:35.293Z,0.00
2018-09-24T03:40:35.440Z,0.00
2018-09-24T03:41:35.589Z,0.00
2018-09-24T03:42:35.734Z,0.00
2018-09-24T03:43:35.882Z,0.00
2018-09-24T03:44:36.028Z,0.00
2018-09-24T03:45:36.177Z,0.00
2018-09-24T03:46:36.325Z,0.00
2018-09-24T03:47:36.473Z,0.00
2018-09-24T03:48:36.618Z,0.00
2018-09-24T03:49:36.767Z,0.00
2018-09-24T03:50:36.912Z,0.00
2018-09-24T03:51:37.066Z,0.00
2018-09-24T03:52:37.208Z,0.00
2018-09-24T03:53:37.357Z,0.00
2018-09-24T03:54:37.501Z,0.00
2018-09-24T03:55:37.651Z,0.00
2018-09-24T03:56:37.798Z,0.00
2018-09-24T03:57:37.948Z,0.00
2018-09-24T03:58:38.095Z,0.00
2018-09-24T03:59:38.245Z,0.00
2018-09-24T04:00:38.397Z,0.00
2018-09-24T04:01:38.544Z,0.00
2018-09-24T04:02:38.690Z,0.00
2018-09-24T04:03:38.838Z,0.00
2018-09-24T04:04:38.987Z,0.00
2018-09-24T04:05:39.134Z,0.00
2018-09-24T04:06:39.281Z,0.00
2018-09-24T04:07:39.431Z,0.00
2018-09-24T04:08:39.577Z,0.00
2018-09-24T04:09:39.748Z,0.00
2018-09-24T04:10:39.927Z,0.00
2018-09-24T04:11:40.042Z,0.00
2018-09-24T04:12:40.175Z,0.00
2018-09-24T04:13:40.311Z,0.00
2018-09-24T04:14:40.455Z,0.00
2018-09-24T04:15:40.600Z,0.00
2018-09-24T04:16:40.751Z,0.00
2018-09-24T04:17:40.913Z,0.00
2018-09-24T04:18:41.052Z,0.00
2018-09-24T04:19:41.253Z,0.00
2018-09-24T04:20:41.343Z,0.00
2018-09-24T04:21:41.498Z,0.00
2018-09-24T04:22:41.642Z,0.00
2018-09-24T04:23:41.785Z,0.00
2018-09-24T04:24:41.933Z,0.00
2018-09-24T04:25:42.076Z,0.00
2018-09-24T04:26:42.221Z,0.00
2018-09-24T04:27:42.369Z,0.00
2018-09-24T04:28:42.519Z,0.00
2018-09-24T04:29:42.662Z,0.00
2018-09-24T04:30:42.809Z,0.00
2018-09-24T04:31:42.956Z,0.00
2018-09-24T04:32:43.104Z,0.00
2018-09-24T04:33:43.251Z,0.00
2018-09-24T04:34:43.399Z,0.00
2018-09-24T04:35:43.546Z,0.00
2018-09-24T04:36:43.696Z,0.00
2018-09-24T04:37:43.839Z,0.00
2018-09-24T04:38:43.989Z,4.00
2018-09-24T04:39:44.137Z,0.00
2018-09-24T04:40:44.284Z,0.00
2018-09-24T04:41:44.430Z,4.00
2018-09-24T04:42:44.577Z,4.00
2018-09-24T04:43:44.724Z,4.00
2018-09-24T04:44:44.871Z,4.00
2018-09-24T04:45:45.018Z,8.00
2018-09-24T04:46:45.168Z,8.00
2018-09-24T04:47:45.316Z,8.00
2018-09-24T04:48:45.463Z,12.00
2018-09-24T04:49:45.609Z,16.00
2018-09-24T04:50:45.757Z,16.00
2018-09-24T04:51:45.905Z,16.00
2018-09-24T04:52:46.053Z,24.00
2018-09-24T04:53:46.199Z,28.00
2018-09-24T04:54:46.351Z,28.00
2018-09-24T04:55:46.493Z,32.00
2018-09-24T04:56:46.642Z,36.00
2018-09-24T04:57:46.788Z,44.00
2018-09-24T04:58:47.104Z,40.00
2018-09-24T04:59:47.085Z,40.00
2018-09-24T05:00:47.231Z,44.00
2018-09-24T05:01:47.378Z,52.00
2018-09-24T05:02:47.529Z,72.00
2018-09-24T05:03:47.674Z,100.00
2018-09-24T05:04:47.819Z,124.00
2018-09-24T05:05:47.969Z,140.00
2018-09-24T05:06:48.129Z,160.00
2018-09-24T05:07:48.278Z,180.00
2018-09-24T05:08:48.426Z,200.00
2018-09-24T05:09:48.572Z,224.00
2018-09-24T05:10:48.723Z,240.00
2018-09-24T05:11:48.869Z,264.00
2018-09-24T05:12:49.017Z,288.00
2018-09-24T05:13:49.165Z,312.00
2018-09-24T05:14:49.315Z,340.00
2018-09-24T05:15:49.459Z,372.00
2018-09-24T05:16:49.608Z,404.00
2018-09-24T05:17:49.755Z,440.00
2018-09-24T05:18:49.900Z,476.00
2018-09-24T05:19:50.053Z,504.00
2018-09-24T05:20:50.203Z,540.00
2018-09-24T05:21:50.350Z,568.00
2018-09-24T05:22:50.498Z,604.00
2018-09-24T05:23:50.648Z,636.00
2018-09-24T05:24:50.792Z,680.00
2018-09-24T05:25:50.939Z,736.00
2018-09-24T05:26:51.084Z,788.00
2018-09-24T05:27:51.232Z,840.00
2018-09-24T05:28:51.379Z,888.00
2018-09-24T05:29:51.527Z,900.00
2018-09-24T05:30:51.679Z,904.00
2018-09-24T05:31:51.823Z,948.00
2018-09-24T05:32:51.967Z,972.00
2018-09-24T05:33:52.117Z,1012.00
2018-09-24T05:34:52.264Z,1052.00
2018-09-24T05:35:52.413Z,1092.00
2018-09-24T05:36:52.563Z,1140.00
2018-09-24T05:37:52.711Z,1180.00
2018-09-24T05:38:52.858Z,1232.00
2018-09-24T05:39:53.017Z,1280.00
2018-09-24T05:40:53.163Z,1344.00
2018-09-24T05:41:53.319Z,1400.00
2018-09-24T05:42:53.468Z,1440.00
2018-09-24T05:43:53.604Z,1484.00
2018-09-24T05:44:53.749Z,1532.00
2018-09-24T05:45:53.900Z,1588.00
2018-09-24T05:46:54.045Z,1640.00
2018-09-24T05:47:54.200Z,1692.00
2018-09-24T05:48:54.339Z,1732.00
2018-09-24T05:49:54.490Z,1764.00
2018-09-24T05:50:54.637Z,1780.00
2018-09-24T05:51:54.784Z,1796.00
2018-09-24T05:52:54.938Z,1796.00
2018-09-24T05:53:55.080Z,1820.00
2018-09-24T05:54:55.229Z,1840.00
2018-09-24T05:55:55.368Z,1876.00
2018-09-24T05:56:55.515Z,1952.00
2018-09-24T05:57:55.659Z,1908.00
2018-09-24T05:58:55.808Z,2040.00
2018-09-24T05:59:55.955Z,2164.00
2018-09-24T06:00:56.102Z,2240.00
2018-09-24T06:01:56.250Z,2280.00
2018-09-24T06:02:56.406Z,2336.00
2018-09-24T06:03:56.553Z,2324.00
2018-09-24T06:04:56.694Z,2280.00
2018-09-24T06:05:56.847Z,2268.00
2018-09-24T06:06:56.991Z,2284.00
2018-09-24T06:07:57.136Z,2320.00
2018-09-24T06:08:57.284Z,2332.00
2018-09-24T06:09:57.426Z,2348.00
2018-09-24T06:10:57.574Z,2336.00
2018-09-24T06:11:57.722Z,2192.00
2018-09-24T06:12:57.871Z,2224.00
2018-09-24T06:13:58.025Z,2252.00
2018-09-24T06:14:58.163Z,2304.00
2018-09-24T06:15:58.315Z,2320.00
2018-09-24T06:16:58.460Z,2384.00
2018-09-24T06:17:58.609Z,2416.00
2018-09-24T06:18:58.812Z,2472.00
2018-09-24T06:19:58.899Z,2704.00
2018-09-24T06:20:59.044Z,2712.00
2018-09-24T06:21:59.192Z,2752.00
2018-09-24T06:22:59.340Z,2756.00
2018-09-24T06:23:59.489Z,2776.00
2018-09-24T06:24:59.634Z,2788.00
2018-09-24T06:25:59.781Z,2680.00
2018-09-24T06:26:59.927Z,2804.00
2018-09-24T06:28:00.070Z,2792.00
2018-09-24T06:29:00.217Z,2756.00
2018-09-24T06:30:00.365Z,2612.00
2018-09-24T06:31:00.514Z,2804.00
2018-09-24T06:32:00.660Z,2600.00
2018-09-24T06:33:00.806Z,2548.00
2018-09-24T06:34:00.956Z,2548.00
2018-09-24T06:35:01.098Z,2628.00
2018-09-24T06:36:01.247Z,2868.00
2018-09-24T06:37:01.397Z,3068.00
2018-09-24T06:38:01.546Z,3140.00
2018-09-24T06:39:01.698Z,3156.00
2018-09-24T06:40:01.847Z,3176.00
2018-09-24T06:41:02.039Z,3172.00
2018-09-24T06:42:02.141Z,3120.00
2018-09-24T06:43:02.328Z,2868.00
2018-09-24T06:44:02.435Z,2604.00
2018-09-24T06:45:02.585Z,2568.00
2018-09-24T06:46:02.743Z,2604.00
2018-09-24T06:47:02.878Z,2656.00
2018-09-24T06:48:03.026Z,2676.00
2018-09-24T06:49:03.176Z,3168.00
2018-09-24T06:50:03.321Z,3256.00
2018-09-24T06:51:03.464Z,3300.00
2018-09-24T06:52:03.613Z,3320.00
2018-09-24T06:53:03.761Z,3356.00
2018-09-24T06:54:03.912Z,3372.00
2018-09-24T06:55:04.058Z,3376.00
2018-09-24T06:56:04.213Z,3380.00
2018-09-24T06:57:04.357Z,3388.00
2018-09-24T06:58:04.510Z,3400.00
2018-09-24T06:59:04.658Z,3476.00
2018-09-24T07:00:04.807Z,3488.00
2018-09-24T07:01:04.956Z,3448.00
2018-09-24T07:02:05.096Z,3440.00
2018-09-24T07:03:05.246Z,3448.00
2018-09-24T07:04:05.395Z,3456.00
2018-09-24T07:05:05.543Z,3452.00
2018-09-24T07:06:05.687Z,3448.00
2018-09-24T07:07:05.831Z,3472.00
2018-09-24T07:08:05.976Z,3496.00
2018-09-24T07:09:06.122Z,3504.00
2018-09-24T07:10:06.266Z,3528.00
2018-09-24T07:11:06.419Z,3536.00
2018-09-24T07:12:06.563Z,3552.00
2018-09-24T07:13:06.713Z,3560.00
2018-09-24T07:14:06.888Z,3580.00
2018-09-24T07:15:07.010Z,3596.00
2018-09-24T07:16:07.156Z,3612.00
2018-09-24T07:17:07.296Z,3604.00
2018-09-24T07:18:07.445Z,3616.00
2018-09-24T07:19:07.595Z,3628.00
2018-09-24T07:20:07.737Z,3632.00
2018-09-24T07:21:07.887Z,3640.00
2018-09-24T07:22:08.035Z,3668.00
2018-09-24T07:23:08.180Z,3680.00
2018-09-24T07:24:08.331Z,3696.00
2018-09-24T07:25:08.479Z,3712.00
2018-09-24T07:26:08.627Z,3740.00
2018-09-24T07:27:08.772Z,3752.00
2018-09-24T07:28:08.999Z,3780.00
2018-09-24T07:29:09.068Z,3800.00
2018-09-24T07:30:09.219Z,3828.00
2018-09-24T07:31:09.369Z,3828.00
2018-09-24T07:32:09.519Z,3820.00
2018-09-24T07:33:09.672Z,3844.00
2018-09-24T07:34:09.815Z,3872.00
2018-09-24T07:35:09.964Z,3904.00
2018-09-24T07:36:10.113Z,3220.00
2018-09-24T07:37:10.259Z,3048.00
2018-09-24T07:38:10.407Z,3000.00
2018-09-24T07:39:10.556Z,3052.00
2018-09-24T07:40:10.698Z,3224.00
2018-09-24T07:41:10.859Z,3212.00
2018-09-24T07:42:10.998Z,3020.00
2018-09-24T07:43:11.314Z,3200.00
2018-09-24T07:44:11.291Z,3980.00
2018-09-24T07:45:11.444Z,4088.00
2018-09-24T07:46:11.591Z,4088.00
2018-09-24T07:47:11.741Z,4116.00
2018-09-24T07:48:11.893Z,4176.00
2018-09-24T07:49:12.045Z,4276.00
2018-09-24T07:50:12.195Z,4264.00
2018-09-24T07:51:12.341Z,4172.00
2018-09-24T07:52:12.491Z,4184.00
2018-09-24T07:53:12.646Z,4120.00
2018-09-24T07:54:12.798Z,3144.00
2018-09-24T07:55:12.954Z,4092.00
2018-09-24T07:56:13.093Z,4112.00
2018-09-24T07:57:13.246Z,4112.00
2018-09-24T07:58:13.398Z,4160.00
2018-09-24T07:59:13.545Z,4184.00
2018-09-24T08:00:13.708Z,4164.00
2018-09-24T08:01:13.836Z,4152.00
2018-09-24T08:02:13.984Z,4288.00
2018-09-24T08:03:14.133Z,4484.00
2018-09-24T08:04:14.285Z,4392.00
2018-09-24T08:05:14.432Z,4284.00
2018-09-24T08:06:14.586Z,4400.00
2018-09-24T08:07:14.873Z,4328.00
2018-09-24T08:08:14.883Z,4320.00
2018-09-24T08:09:15.027Z,4380.00
2018-09-24T08:10:15.176Z,4420.00
2018-09-24T08:11:15.325Z,4472.00
2018-09-24T08:12:15.475Z,4724.00
2018-09-24T08:13:15.688Z,4944.00
2018-09-24T08:14:15.775Z,4900.00
2018-09-24T08:15:15.924Z,4944.00
2018-09-24T08:16:16.076Z,4132.00
2018-09-24T08:17:16.225Z,3716.00
2018-09-24T08:18:16.418Z,4680.00
2018-09-24T08:19:16.522Z,4424.00
2018-09-24T08:20:16.664Z,4424.00
2018-09-24T08:21:16.813Z,4792.00
2018-09-24T08:22:16.963Z,4056.00
2018-09-24T08:23:17.116Z,5064.00
2018-09-24T08:24:17.263Z,4544.00
2018-09-24T08:25:17.414Z,4556.00
2018-09-24T08:26:17.554Z,4720.00
2018-09-24T08:27:17.698Z,4848.00
2018-09-24T08:28:17.846Z,4588.00
2018-09-24T08:29:17.994Z,4028.00
2018-09-24T08:30:18.164Z,4552.00
2018-09-24T08:31:18.317Z,4564.00
2018-09-24T08:32:18.454Z,4640.00
2018-09-24T08:33:18.603Z,4760.00
2018-09-24T08:34:18.753Z,4304.00
2018-09-24T08:35:18.910Z,4928.00
2018-09-24T08:36:19.120Z,4812.00
2018-09-24T08:37:19.204Z,4688.00
2018-09-24T08:38:19.357Z,4820.00
2018-09-24T08:39:19.504Z,4732.00
2018-09-24T08:40:19.656Z,4532.00
2018-09-24T08:41:19.811Z,4660.00
2018-09-24T08:42:19.962Z,3644.00
2018-09-24T08:43:20.112Z,3612.00
2018-09-24T08:44:20.261Z,4176.00
2018-09-24T08:45:20.407Z,4100.00
2018-09-24T08:46:20.556Z,5156.00
2018-09-24T08:47:20.709Z,4976.00
2018-09-24T08:48:20.857Z,3904.00
2018-09-24T08:49:21.005Z,5032.00
2018-09-24T08:50:21.157Z,4308.00
2018-09-24T08:51:21.305Z,4272.00
2018-09-24T08:52:21.467Z,5136.00
2018-09-24T08:53:21.621Z,5168.00
2018-09-24T08:54:21.764Z,5800.00
2018-09-24T08:55:21.908Z,5576.00
2018-09-24T08:56:22.073Z,5956.00
2018-09-24T08:57:22.241Z,5272.00
2018-09-24T08:58:22.362Z,4752.00
2018-09-24T08:59:22.504Z,4960.00
2018-09-24T09:00:22.658Z,4984.00
2018-09-24T09:01:22.804Z,5368.00
2018-09-24T09:02:22.954Z,5820.00
2018-09-24T09:03:23.106Z,6260.00
2018-09-24T09:04:23.256Z,5520.00
2018-09-24T09:05:23.409Z,5160.00
2018-09-24T09:06:23.559Z,4432.00
2018-09-24T09:07:23.710Z,4632.00
2018-09-24T09:08:24.009Z,6164.00
2018-09-24T09:09:24.012Z,6660.00
2018-09-24T09:10:24.161Z,5964.00
2018-09-24T09:11:24.314Z,5336.00
2018-09-24T09:12:24.469Z,3928.00
2018-09-24T09:13:24.619Z,4020.00
2018-09-24T09:14:24.769Z,4636.00
2018-09-24T09:15:24.917Z,5744.00
2018-09-24T09:16:25.127Z,5768.00
2018-09-24T09:17:25.234Z,5776.00
2018-09-24T09:18:25.380Z,4120.00
2018-09-24T09:19:25.526Z,4000.00
2018-09-24T09:20:25.674Z,5556.00
2018-09-24T09:21:25.843Z,4636.00
2018-09-24T09:22:25.978Z,6040.00
2018-09-24T09:23:26.132Z,7264.00
2018-09-24T09:24:26.277Z,8120.00
2018-09-24T09:25:26.431Z,8924.00
2018-09-24T09:26:26.581Z,10044.00
2018-09-24T09:27:26.729Z,11672.00
2018-09-24T09:28:26.881Z,12184.00
2018-09-24T09:29:27.104Z,10664.00
2018-09-24T09:30:27.179Z,11388.00
2018-09-24T09:31:27.323Z,9736.00
2018-09-24T09:32:27.487Z,8968.00
2018-09-24T09:33:27.636Z,8080.00
2018-09-24T09:34:27.783Z,7820.00
2018-09-24T09:35:27.937Z,8060.00
2018-09-24T09:36:28.088Z,7904.00
2018-09-24T09:37:28.239Z,8392.00
2018-09-24T09:38:28.381Z,6740.00
2018-09-24T09:39:28.530Z,7932.00
2018-09-24T09:40:28.680Z,9736.00
2018-09-24T09:41:28.830Z,10088.00
2018-09-24T09:42:28.978Z,10152.00
2018-09-24T09:43:29.130Z,10628.00
2018-09-24T09:44:29.280Z,8784.00
2018-09-24T09:45:29.434Z,6712.00
2018-09-24T09:46:29.579Z,5596.00
2018-09-24T09:47:29.731Z,5148.00
2018-09-24T09:48:29.881Z,4928.00
2018-09-24T09:49:30.035Z,4516.00
2018-09-24T09:50:30.185Z,4260.00
2018-09-24T09:51:30.333Z,5552.00
2018-09-24T09:52:30.479Z,5608.00
2018-09-24T09:53:30.662Z,5860.00
2018-09-24T09:54:30.779Z,6404.00
2018-09-24T09:55:30.932Z,7260.00
2018-09-24T09:56:31.084Z,8296.00
2018-09-24T09:57:31.233Z,8964.00
2018-09-24T09:58:31.387Z,7596.00
2018-09-24T09:59:31.542Z,7012.00
2018-09-24T10:00:31.692Z,7896.00
2018-09-24T10:01:31.847Z,8368.00
2018-09-24T10:02:32.007Z,8300.00
2018-09-24T10:03:32.149Z,8520.00
2018-09-24T10:04:32.304Z,9136.00
2018-09-24T10:05:32.452Z,7564.00
2018-09-24T10:06:32.608Z,8628.00
2018-09-24T10:07:32.762Z,7552.00
2018-09-24T10:08:32.921Z,5864.00
2018-09-24T10:09:33.058Z,4808.00
2018-09-24T10:10:33.208Z,4844.00
2018-09-24T10:11:33.360Z,5604.00
2018-09-24T10:12:33.512Z,5732.00
2018-09-24T10:13:33.665Z,5968.00
2018-09-24T10:14:33.819Z,6284.00
2018-09-24T10:15:33.971Z,6700.00
2018-09-24T10:16:34.122Z,7228.00
2018-09-24T10:17:34.275Z,7912.00
2018-09-24T10:18:34.425Z,8424.00
2018-09-24T10:19:34.580Z,8724.00
2018-09-24T10:20:34.735Z,8856.00
2018-09-24T10:21:34.888Z,8968.00
2018-09-24T10:22:35.050Z,9436.00
2018-09-24T10:23:35.189Z,10348.00
2018-09-24T10:24:35.343Z,10656.00
2018-09-24T10:25:35.501Z,10656.00
2018-09-24T10:26:35.647Z,10684.00
2018-09-24T10:27:35.799Z,11236.00
2018-09-24T10:28:35.952Z,11240.00
2018-09-24T10:29:36.104Z,9780.00
2018-09-24T10:30:36.256Z,10372.00
2018-09-24T10:31:36.410Z,11956.00
2018-09-24T10:32:36.574Z,11944.00
2018-09-24T10:33:36.720Z,11600.00
2018-09-24T10:34:36.869Z,10812.00
2018-09-24T10:35:37.021Z,9092.00
2018-09-24T10:36:37.173Z,6784.00
2018-09-24T10:37:37.325Z,5940.00
2018-09-24T10:38:37.478Z,5484.00
2018-09-24T10:39:37.675Z,4924.00
2018-09-24T10:40:37.788Z,4756.00
2018-09-24T10:41:37.939Z,4900.00
2018-09-24T10:42:38.094Z,4708.00
2018-09-24T10:43:38.247Z,4616.00
2018-09-24T10:44:38.398Z,4644.00
2018-09-24T10:45:38.550Z,4636.00
2018-09-24T10:46:38.703Z,4472.00
2018-09-24T10:47:38.856Z,4756.00
2018-09-24T10:48:39.011Z,4996.00
2018-09-24T10:49:39.165Z,5136.00
2018-09-24T10:50:39.318Z,4752.00
2018-09-24T10:51:39.471Z,6248.00
2018-09-24T10:52:39.620Z,6444.00
2018-09-24T10:53:39.772Z,6260.00
2018-09-24T10:54:39.927Z,6088.00
2018-09-24T10:55:40.101Z,8104.00
2018-09-24T10:56:40.226Z,8920.00
2018-09-24T10:57:40.379Z,9716.00
2018-09-24T10:58:40.531Z,9944.00
2018-09-24T10:59:40.717Z,9732.00
2018-09-24T11:00:40.839Z,9148.00
2018-09-24T11:01:40.988Z,9236.00
2018-09-24T11:02:41.140Z,8412.00
2018-09-24T11:03:41.292Z,9156.00
2018-09-24T11:04:41.466Z,7900.00
2018-09-24T11:05:41.594Z,7316.00
2018-09-24T11:06:41.750Z,7132.00
2018-09-24T11:07:41.901Z,7320.00
2018-09-24T11:08:42.053Z,7516.00
2018-09-24T11:09:42.207Z,9448.00
2018-09-24T11:10:42.410Z,8360.00
2018-09-24T11:11:42.511Z,8884.00
2018-09-24T11:12:42.665Z,10668.00
2018-09-24T11:13:42.817Z,10700.00
2018-09-24T11:14:42.970Z,9952.00
2018-09-24T11:15:43.202Z,9672.00
2018-09-24T11:16:43.522Z,8616.00
2018-09-24T11:17:43.573Z,9324.00
2018-09-24T11:18:43.580Z,9736.00
2018-09-24T11:19:43.733Z,8408.00
2018-09-24T11:20:43.884Z,8492.00
2018-09-24T11:21:44.035Z,7960.00
2018-09-24T11:22:44.188Z,7248.00
2018-09-24T11:23:44.375Z,6884.00
2018-09-24T11:24:44.497Z,6688.00
2018-09-24T11:25:44.645Z,6224.00
2018-09-24T11:26:44.798Z,5604.00
2018-09-24T11:27:44.952Z,5676.00
2018-09-24T11:28:45.104Z,6408.00
2018-09-24T11:29:45.309Z,7440.00
2018-09-24T11:30:45.408Z,8532.00
2018-09-24T11:31:45.559Z,8624.00
2018-09-24T11:32:45.716Z,8948.00
2018-09-24T11:33:45.867Z,7788.00
2018-09-24T11:34:46.021Z,7760.00
2018-09-24T11:35:46.171Z,7372.00
2018-09-24T11:36:46.326Z,7460.00
2018-09-24T11:37:46.479Z,7668.00
2018-09-24T11:38:46.632Z,8092.00
2018-09-24T11:39:46.783Z,8280.00
2018-09-24T11:40:46.934Z,8924.00
2018-09-24T11:41:47.087Z,8088.00
2018-09-24T11:42:47.239Z,8580.00
2018-09-24T11:43:47.395Z,9404.00
2018-09-24T11:44:47.548Z,9912.00
2018-09-24T11:45:47.704Z,9708.00
2018-09-24T11:46:47.921Z,8856.00
2018-09-24T11:47:48.011Z,7808.00
2018-09-24T11:48:48.297Z,7052.00
2018-09-24T11:49:48.463Z,6672.00
2018-09-24T11:50:48.480Z,6792.00
2018-09-24T11:51:48.645Z,6600.00
2018-09-24T11:52:48.769Z,6812.00
2018-09-24T11:53:48.922Z,7732.00
2018-09-24T11:54:49.094Z,8672.00
2018-09-24T11:55:49.236Z,8960.00
2018-09-24T11:56:49.392Z,8464.00
2018-09-24T11:57:49.546Z,7900.00
2018-09-24T11:58:49.700Z,7648.00
2018-09-24T11:59:49.851Z,8020.00
2018-09-24T12:00:50.008Z,8176.00
2018-09-24T12:01:50.156Z,8188.00
2018-09-24T12:02:50.309Z,9040.00
2018-09-24T12:03:50.460Z,9224.00
2018-09-24T12:04:50.611Z,8304.00
2018-09-24T12:05:50.767Z,7788.00
2018-09-24T12:06:50.918Z,6576.00
2018-09-24T12:07:51.075Z,5892.00
2018-09-24T12:08:51.223Z,5588.00
2018-09-24T12:09:51.374Z,5272.00
2018-09-24T12:10:51.530Z,5084.00
2018-09-24T12:11:51.678Z,6272.00
2018-09-24T12:12:51.830Z,6676.00
2018-09-24T12:13:51.980Z,6888.00
2018-09-24T12:14:52.142Z,6796.00
2018-09-24T12:15:52.292Z,6988.00
2018-09-24T12:16:52.445Z,7804.00
2018-09-24T12:17:52.595Z,8296.00
2018-09-24T12:18:52.749Z,8960.00
2018-09-24T12:19:52.898Z,9416.00
2018-09-24T12:20:53.053Z,9712.00
2018-09-24T12:21:53.210Z,9992.00
2018-09-24T12:22:53.359Z,10200.00
2018-09-24T12:23:53.512Z,10028.00
2018-09-24T12:24:53.666Z,9868.00
2018-09-24T12:25:53.825Z,9944.00
2018-09-24T12:26:53.974Z,9668.00
2018-09-24T12:27:54.131Z,9220.00
2018-09-24T12:28:54.281Z,7840.00
2018-09-24T12:29:54.434Z,8292.00
2018-09-24T12:30:54.588Z,7584.00
2018-09-24T12:31:54.741Z,6792.00
2018-09-24T12:32:54.892Z,6396.00
2018-09-24T12:33:55.049Z,6596.00
2018-09-24T12:34:55.200Z,6684.00